createdAt,value
2022-10-18T00:01:32.990Z,101384.38
2022-10-18T00:04:00.440Z,101379.13
2022-10-18T00:06:27.931Z,101389.72
2022-10-18T00:08:55.424Z,101383.56
2022-10-18T00:11:22.877Z,101386.22
2022-10-18T00:13:51.633Z,101378.38
2022-10-18T00:16:19.287Z,101387.13
2022-10-18T00:18:47.895Z,101382.72
2022-10-18T00:21:16.509Z,101356.00
2022-10-18T00:23:44.051Z,101380.97
2022-10-18T00:26:12.689Z,101380.97
2022-10-18T00:28:40.364Z,101321.69
2022-10-18T00:31:16.798Z,101349.28
2022-10-18T00:33:44.881Z,101366.50
2022-10-18T00:36:12.550Z,101329.44
2022-10-18T00:38:40.036Z,101383.72
2022-10-18T00:41:09.921Z,101353.84
2022-10-18T00:43:52.551Z,101387.34
2022-10-18T00:46:21.369Z,101391.81
2022-10-18T00:48:48.839Z,101402.50
2022-10-18T00:51:16.291Z,101401.69
2022-10-18T00:53:43.816Z,101373.22
2022-10-18T00:56:11.245Z,101399.09
2022-10-18T00:58:38.678Z,101393.75
2022-10-18T01:01:06.437Z,101389.25
2022-10-18T01:03:35.368Z,101383.91
2022-10-18T01:06:02.789Z,101382.19
2022-10-18T01:08:37.282Z,101382.19
2022-10-18T01:11:11.074Z,101338.94
2022-10-18T01:13:44.560Z,101376.84
2022-10-18T01:16:16.389Z,101379.59
2022-10-18T01:18:49.199Z,101351.00
2022-10-18T01:21:21.073Z,101370.72
2022-10-18T01:24:42.171Z,101366.25
2022-10-18T01:27:22.237Z,101369.97
2022-10-18T01:29:52.934Z,101361.16
2022-10-18T01:32:22.511Z,101355.81
2022-10-18T01:34:50.017Z,101336.84
2022-10-18T01:37:17.948Z,101299.66
2022-10-18T01:39:46.859Z,101346.94
2022-10-18T01:42:15.629Z,101356.69
2022-10-18T01:44:43.115Z,101355.81
2022-10-18T01:47:10.890Z,101356.69
2022-10-18T01:49:39.658Z,101354.09
2022-10-18T01:54:41.005Z,101356.78
2022-10-18T01:57:10.549Z,101344.34
2022-10-18T01:59:42.156Z,101340.75
2022-10-18T02:02:14.272Z,101333.00
2022-10-18T02:04:46.592Z,101302.81
2022-10-18T02:07:17.676Z,101341.69
2022-10-18T02:09:50.232Z,101334.63
2022-10-18T02:12:17.694Z,101337.28
2022-10-18T02:14:45.154Z,101333.75
2022-10-18T02:17:12.918Z,101336.34
2022-10-18T02:19:42.799Z,101242.97
2022-10-18T02:22:11.167Z,101323.06
2022-10-18T02:24:39.646Z,101274.16
2022-10-18T02:27:07.063Z,101325.75
2022-10-18T02:29:34.524Z,101328.66
2022-10-18T02:32:05.268Z,101339.97
2022-10-18T02:34:34.934Z,101343.69
2022-10-18T02:37:03.686Z,101341.84
2022-10-18T02:39:32.218Z,101307.59
2022-10-18T02:41:59.782Z,101345.47
2022-10-18T02:44:27.443Z,101350.81
2022-10-18T02:46:54.878Z,101337.47
2022-10-18T02:49:22.740Z,101277.25
2022-10-18T02:51:50.173Z,101261.56
2022-10-18T02:54:18.956Z,101337.56
2022-10-18T02:56:46.406Z,101335.84
2022-10-18T02:59:13.894Z,101329.78
2022-10-18T03:01:41.357Z,101327.91
2022-10-18T03:04:08.853Z,101330.59
2022-10-18T03:06:36.300Z,101329.63
2022-10-18T03:09:03.823Z,101292.56
2022-10-18T03:11:32.592Z,101327.91
2022-10-18T03:14:00.146Z,101322.66
2022-10-18T03:16:27.571Z,101320.06
2022-10-18T03:18:55.023Z,101321.88
2022-10-18T03:21:22.472Z,101319.19
2022-10-18T03:23:49.928Z,101321.88
2022-10-18T03:26:17.359Z,101275.53
2022-10-18T03:28:46.214Z,101329.88
2022-10-18T03:31:13.692Z,101325.50
2022-10-18T03:33:41.142Z,101311.28
2022-10-18T03:36:08.679Z,101312.22
2022-10-18T03:38:36.183Z,101318.50
2022-10-18T03:41:03.635Z,101321.16
2022-10-18T03:43:31.077Z,101316.78
2022-10-18T03:45:59.835Z,101317.66
2022-10-18T03:48:27.276Z,101318.59
2022-10-18T03:50:54.717Z,101279.56
2022-10-18T03:53:22.145Z,101317.75
2022-10-18T03:55:51.900Z,101319.53
2022-10-18T03:58:19.517Z,101313.34
2022-10-18T04:00:46.976Z,101310.75
2022-10-18T04:03:15.774Z,101314.28
2022-10-18T04:05:43.325Z,101321.44
2022-10-18T04:08:10.762Z,101322.31
2022-10-18T04:10:38.273Z,101324.09
2022-10-18T04:13:05.771Z,101317.13
2022-10-18T04:15:33.208Z,101288.97
2022-10-18T04:18:00.773Z,101314.47
2022-10-18T04:20:29.694Z,101298.78
2022-10-18T04:22:57.776Z,101310.09
2022-10-18T04:25:25.357Z,101243.56
2022-10-18T04:27:52.785Z,101309.22
2022-10-18T04:30:20.251Z,101311.88
2022-10-18T04:32:47.693Z,101310.16
2022-10-18T04:35:15.172Z,101288.44
2022-10-18T04:37:43.947Z,101310.16
2022-10-18T04:40:12.466Z,101302.16
2022-10-18T04:42:39.884Z,101303.09
2022-10-18T04:45:08.486Z,101306.63
2022-10-18T04:47:35.930Z,101304.91
2022-10-18T04:50:03.393Z,101317.38
2022-10-18T04:52:30.822Z,101322.72
2022-10-18T04:54:59.583Z,101326.28
2022-10-18T04:57:27.013Z,101319.19
2022-10-18T04:59:54.456Z,101322.81
2022-10-18T05:02:21.916Z,101323.78
2022-10-18T05:04:49.364Z,101329.03
2022-10-18T05:07:17.078Z,101322.72
2022-10-18T05:09:44.525Z,101326.34
2022-10-18T05:12:13.306Z,101321.09
2022-10-18T05:14:40.769Z,101322.91
2022-10-18T05:17:08.197Z,101331.78
2022-10-18T05:19:35.654Z,101326.44
2022-10-18T05:22:03.093Z,101322.91
2022-10-18T05:24:30.555Z,101324.69
2022-10-18T05:26:58.165Z,101272.41
2022-10-18T05:31:55.476Z,101324.78
2022-10-18T05:34:24.619Z,101329.28
2022-10-18T05:36:52.062Z,101328.41
2022-10-18T05:39:19.492Z,101327.53
2022-10-18T05:41:46.930Z,101326.69
2022-10-18T05:44:14.367Z,101325.81
2022-10-18T05:46:43.132Z,101328.50
2022-10-18T05:49:10.901Z,101329.38
2022-10-18T05:51:38.353Z,101331.16
2022-10-18T05:54:05.934Z,101331.16
2022-10-18T05:56:33.437Z,101333.84
2022-10-18T05:59:00.935Z,101337.38
2022-10-18T06:01:28.374Z,101333.75
2022-10-18T06:03:57.172Z,101342.63
2022-10-18T06:06:24.585Z,101344.44
2022-10-18T06:08:52.289Z,101342.00
2022-10-18T06:11:20.794Z,101285.94
2022-10-18T06:13:48.907Z,101348.72
2022-10-18T06:16:17.446Z,101360.28
2022-10-18T06:18:47.848Z,101348.72
2022-10-18T06:21:16.671Z,101352.34
2022-10-18T06:23:44.148Z,101350.81
2022-10-18T06:26:12.100Z,101361.31
2022-10-18T06:28:39.641Z,101308.56
2022-10-18T06:31:07.238Z,101323.28
2022-10-18T06:33:35.396Z,101313.75
2022-10-18T06:36:03.585Z,101340.47
2022-10-18T06:38:32.347Z,101357.44
2022-10-18T06:40:59.972Z,101272.84
2022-10-18T06:43:27.436Z,101363.91
2022-10-18T06:45:55.095Z,101360.88
2022-10-18T06:48:22.721Z,101361.34
2022-10-18T06:50:57.144Z,101358.31
2022-10-18T06:53:24.901Z,101369.69
2022-10-18T06:55:53.726Z,101369.44
2022-10-18T06:58:21.195Z,101369.13
2022-10-18T07:00:48.656Z,101378.78
2022-10-18T07:03:16.127Z,101375.84
2022-10-18T07:05:43.571Z,101362.47
2022-10-18T07:08:11.010Z,101364.97
2022-10-18T07:10:38.467Z,101375.31
2022-10-18T07:13:30.988Z,101375.13
2022-10-18T07:16:02.687Z,101331.78
2022-10-18T07:18:30.159Z,101386.59
2022-10-18T07:20:57.601Z,101389.78
2022-10-18T07:23:25.191Z,101389.59
2022-10-18T07:25:52.651Z,101393.22
2022-10-18T07:28:21.403Z,101397.63
2022-10-18T07:30:48.872Z,101395.69
2022-10-18T07:33:16.310Z,101395.63
2022-10-18T07:35:43.782Z,101323.31
2022-10-18T07:38:11.356Z,101386.91
2022-10-18T07:40:38.882Z,101391.34
2022-10-18T07:43:09.216Z,101399.25
2022-10-18T07:45:40.783Z,101392.97
2022-10-18T07:48:08.226Z,101392.00
2022-10-18T07:50:35.665Z,101401.75
2022-10-18T07:53:03.095Z,101405.28
2022-10-18T07:55:30.553Z,101318.16
2022-10-18T07:57:57.991Z,101407.03
2022-10-18T08:00:25.423Z,101411.41
2022-10-18T08:02:57.939Z,101404.25
2022-10-18T08:05:25.497Z,101410.44
2022-10-18T08:07:52.965Z,101406.94
2022-10-18T08:10:20.628Z,101422.00
2022-10-18T08:12:48.049Z,101410.78
2022-10-18T08:15:15.636Z,101415.78
2022-10-18T08:17:44.133Z,101416.66
2022-10-18T08:20:29.871Z,101423.72
2022-10-18T08:23:00.345Z,101422.00
2022-10-18T08:25:28.152Z,101423.22
2022-10-18T08:27:55.642Z,101419.59
2022-10-18T08:30:23.576Z,101418.22
2022-10-18T08:32:50.993Z,101419.94
2022-10-18T08:35:19.783Z,101427.06
2022-10-18T08:37:48.346Z,101428.09
2022-10-18T08:40:15.836Z,101424.66
2022-10-18T08:42:52.633Z,101427.91
2022-10-18T08:45:37.405Z,101394.91
2022-10-18T08:48:07.542Z,101396.88
2022-10-18T08:50:38.334Z,101432.41
2022-10-18T08:53:08.375Z,101430.31
2022-10-18T08:55:37.672Z,101434.75
2022-10-18T08:58:05.782Z,101436.47
2022-10-18T09:00:35.362Z,101443.19
2022-10-18T09:03:11.043Z,101451.09
2022-10-18T09:05:42.450Z,101400.63
2022-10-18T09:08:39.878Z,101438.47
2022-10-18T09:11:11.796Z,101438.47
2022-10-18T09:13:58.264Z,101436.66
2022-10-18T09:16:29.345Z,101440.09
2022-10-18T09:18:58.521Z,101406.47
2022-10-18T09:21:31.525Z,101433.44
2022-10-18T09:24:02.445Z,101440.78
2022-10-18T09:26:29.915Z,101391.72
2022-10-18T09:29:03.838Z,101447.00
2022-10-18T09:31:37.926Z,101450.53
2022-10-18T09:34:06.468Z,101446.13
2022-10-18T09:36:37.137Z,101439.41
2022-10-18T09:39:05.280Z,101452.34
2022-10-18T09:41:35.097Z,101394.19
2022-10-18T09:44:03.422Z,101450.28
2022-10-18T09:46:33.165Z,101461.63
2022-10-18T09:49:02.465Z,101460.78
2022-10-18T09:51:31.782Z,101462.59
2022-10-18T09:54:04.823Z,101458.88
2022-10-18T09:56:39.311Z,101437.16
2022-10-18T09:59:16.555Z,101455.28
2022-10-18T10:01:43.975Z,101461.47
2022-10-18T10:04:11.541Z,101434.13
2022-10-18T10:06:39.607Z,101451.19
2022-10-18T10:09:15.210Z,101464.91
2022-10-18T10:11:45.442Z,101470.25
2022-10-18T10:16:51.143Z,101408.00
2022-10-18T10:19:28.356Z,101466.72
2022-10-18T10:21:58.281Z,101467.69
2022-10-18T10:24:31.337Z,101468.56
2022-10-18T10:27:06.752Z,101466.81
2022-10-18T10:29:56.485Z,101473.91
2022-10-18T10:34:58.912Z,101474.06
2022-10-18T10:37:34.589Z,101473.97
2022-10-18T10:40:20.445Z,101408.50
2022-10-18T10:43:08.826Z,101476.66
2022-10-18T10:46:00.895Z,101430.16
2022-10-18T10:48:32.999Z,101473.03
2022-10-18T10:51:02.944Z,101475.69
2022-10-18T10:53:36.300Z,101480.94
2022-10-18T10:56:05.668Z,101431.63
2022-10-18T10:58:36.049Z,101474.72
2022-10-18T11:01:22.196Z,101481.81
2022-10-18T11:03:50.380Z,101409.38
2022-10-18T11:06:34.911Z,101478.19
2022-10-18T11:09:02.798Z,101443.69
2022-10-18T11:11:32.577Z,101458.13
2022-10-18T11:14:21.032Z,101429.22
2022-10-18T11:16:52.597Z,101470.00
2022-10-18T11:19:30.111Z,101473.50
2022-10-18T11:21:57.573Z,101407.75
2022-10-18T11:24:25.038Z,101472.69
2022-10-18T11:26:54.814Z,101467.34
2022-10-18T11:29:39.535Z,101461.13
2022-10-18T11:32:11.529Z,101470.97
2022-10-18T11:34:46.064Z,101469.13
2022-10-18T11:37:39.183Z,101466.34
2022-10-18T11:40:26.518Z,101421.81
2022-10-18T11:42:58.499Z,101435.25
2022-10-18T11:48:06.460Z,101472.47
2022-10-18T11:50:36.011Z,101437.47
2022-10-18T11:53:08.942Z,101449.91
2022-10-18T11:55:42.333Z,101449.81
2022-10-18T11:58:19.457Z,101454.53
2022-10-18T12:00:48.953Z,101450.94
2022-10-18T12:03:28.937Z,101437.16
2022-10-18T12:05:57.384Z,101451.81
2022-10-18T12:08:27.001Z,101406.38
2022-10-18T12:11:05.587Z,101359.75
2022-10-18T12:13:37.400Z,101436.41
2022-10-18T12:16:05.389Z,101413.38
2022-10-18T12:18:32.872Z,101431.50
2022-10-18T12:21:00.584Z,101425.06
2022-10-18T12:23:35.384Z,101440.84
2022-10-18T12:26:03.703Z,101420.81
2022-10-18T12:28:38.478Z,101409.03
2022-10-18T12:31:07.824Z,101433.16
2022-10-18T12:33:36.755Z,101375.31
2022-10-18T12:36:09.508Z,101431.34
2022-10-18T12:38:37.557Z,101436.44
2022-10-18T12:41:05.094Z,101429.28
2022-10-18T12:43:36.618Z,101437.31
2022-10-18T12:46:10.751Z,101438.94
2022-10-18T12:48:42.447Z,101382.56
2022-10-18T12:51:14.853Z,101431.69
2022-10-18T12:53:44.838Z,101427.88
2022-10-18T12:56:36.731Z,101390.66
2022-10-18T12:59:49.988Z,101428.41
2022-10-18T13:02:36.736Z,101429.16
2022-10-18T13:05:41.297Z,101429.94
2022-10-18T13:08:39.572Z,101428.81
2022-10-18T13:11:25.591Z,101434.84
2022-10-18T13:14:01.073Z,101421.84
2022-10-18T13:16:33.582Z,101368.91
2022-10-18T13:19:10.310Z,101428.09
2022-10-18T13:21:44.143Z,101358.75
2022-10-18T13:24:36.318Z,101428.34
2022-10-18T13:27:35.608Z,101424.72
2022-10-18T13:30:12.200Z,101431.53
2022-10-18T13:32:45.498Z,101430.31
2022-10-18T13:35:50.240Z,101425.59
2022-10-18T13:38:29.954Z,101428.06
2022-10-18T13:41:01.972Z,101429.97
2022-10-18T13:43:58.512Z,101441.94
2022-10-18T13:46:26.346Z,101435.66
2022-10-18T13:48:53.977Z,101417.47
2022-10-18T13:51:36.859Z,101435.28
2022-10-18T13:54:10.397Z,101409.34
2022-10-18T13:56:51.506Z,101442.94
2022-10-18T14:02:50.523Z,101448.84
2022-10-18T14:05:48.074Z,101428.97
2022-10-18T14:08:18.793Z,101453.00
2022-10-18T14:11:01.875Z,101417.28
2022-10-18T14:13:34.688Z,101392.41
2022-10-18T14:16:06.404Z,101448.88
2022-10-18T14:18:35.246Z,101448.72
2022-10-18T14:21:21.612Z,101443.72
2022-10-18T14:23:50.844Z,101422.19
2022-10-18T14:26:19.454Z,101459.97
2022-10-18T14:28:59.578Z,101466.88
2022-10-18T14:31:27.627Z,101469.38
2022-10-18T14:33:58.114Z,101468.22
2022-10-18T14:36:26.754Z,101421.63
2022-10-18T14:38:56.160Z,101466.13
2022-10-18T14:41:24.715Z,101477.50
2022-10-18T14:43:52.458Z,101477.31
2022-10-18T14:46:23.688Z,101424.31
2022-10-18T14:48:55.376Z,101467.19
2022-10-18T14:51:22.918Z,101462.53
2022-10-18T14:53:50.376Z,101474.78
2022-10-18T14:56:24.505Z,101449.78
2022-10-18T14:58:52.252Z,101469.91
2022-10-18T15:01:20.813Z,101468.66
2022-10-18T15:03:48.295Z,101474.59
2022-10-18T15:06:17.670Z,101468.06
2022-10-18T15:08:46.646Z,101474.22
2022-10-18T15:11:14.778Z,101441.38
2022-10-18T15:13:47.833Z,101480.13
2022-10-18T15:16:16.345Z,101479.19
2022-10-18T15:18:43.794Z,101477.34
2022-10-18T15:21:20.865Z,101471.13
2022-10-18T15:23:48.326Z,101479.91
2022-10-18T15:26:21.481Z,101474.66
2022-10-18T15:28:52.258Z,101361.09
2022-10-18T15:31:27.040Z,101465.38
2022-10-18T15:33:55.143Z,101442.63
2022-10-18T15:36:27.520Z,101484.72
2022-10-18T15:38:54.974Z,101447.97
2022-10-18T15:41:39.524Z,101492.09
2022-10-18T15:44:19.605Z,101491.63
2022-10-18T15:46:47.499Z,101488.56
2022-10-18T15:49:48.460Z,101504.25
2022-10-18T15:52:38.488Z,101494.94
2022-10-18T15:55:47.304Z,101498.66
2022-10-18T15:58:18.253Z,101503.53
2022-10-18T16:00:47.309Z,101472.91
2022-10-18T16:03:14.885Z,101491.19
2022-10-18T16:05:42.517Z,101513.25
2022-10-18T16:08:19.334Z,101514.41
2022-10-18T16:10:46.793Z,101503.09
2022-10-18T16:13:14.240Z,101502.44
2022-10-18T16:15:41.695Z,101505.41
2022-10-18T16:18:13.852Z,101498.50
2022-10-18T16:20:41.296Z,101509.50
2022-10-18T16:23:15.047Z,101500.94
2022-10-18T16:25:42.505Z,101496.84
2022-10-18T16:28:10.910Z,101507.53
2022-10-18T16:30:38.445Z,101513.16
2022-10-18T16:33:07.385Z,101518.00
2022-10-18T16:35:36.407Z,101521.47
2022-10-18T16:38:03.884Z,101519.91
2022-10-18T16:40:31.344Z,101524.50
2022-10-18T16:42:58.804Z,101530.78
2022-10-18T16:45:26.266Z,101532.53
2022-10-18T16:47:53.716Z,101531.00
2022-10-18T16:50:22.588Z,101533.78
2022-10-18T16:52:51.394Z,101527.59
2022-10-18T16:55:24.759Z,101539.38
2022-10-18T16:57:52.281Z,101535.00
2022-10-18T17:00:20.811Z,101536.88
2022-10-18T17:02:48.778Z,101531.97
2022-10-18T17:05:16.458Z,101540.00
2022-10-18T17:07:44.031Z,101485.91
2022-10-18T17:10:13.727Z,101546.56
2022-10-18T17:12:41.251Z,101535.69
2022-10-18T17:15:09.479Z,101527.25
2022-10-18T17:17:37.082Z,101507.47
2022-10-18T17:20:05.140Z,101497.22
2022-10-18T17:22:32.585Z,101559.50
2022-10-18T17:25:00.038Z,101563.38
2022-10-18T17:27:28.792Z,101562.50
2022-10-18T17:29:57.446Z,101556.25
2022-10-18T17:32:24.920Z,101561.75
2022-10-18T17:34:52.369Z,101565.28
2022-10-18T17:37:19.805Z,101574.41
2022-10-18T17:39:47.409Z,101586.06
2022-10-18T17:42:14.864Z,101587.97
2022-10-18T17:44:43.960Z,101600.53
2022-10-18T17:47:11.422Z,101607.81
2022-10-18T17:49:39.057Z,101603.47
2022-10-18T17:52:07.164Z,101607.09
2022-10-18T17:54:34.682Z,101568.75
2022-10-18T17:57:02.121Z,101614.50
2022-10-18T17:59:29.766Z,101615.44
2022-10-18T18:01:58.590Z,101613.81
2022-10-18T18:04:26.099Z,101617.56
2022-10-18T18:06:53.941Z,101624.84
2022-10-18T18:09:21.851Z,101623.09
2022-10-18T18:11:50.253Z,101619.56
2022-10-18T18:14:17.721Z,101620.50
2022-10-18T18:16:46.377Z,101624.22
2022-10-18T18:19:15.392Z,101609.38
2022-10-18T18:21:43.370Z,101617.31
2022-10-18T18:24:10.982Z,101619.97
2022-10-18T18:26:38.999Z,101616.50
2022-10-18T18:29:06.507Z,101620.13
2022-10-18T18:31:38.697Z,101619.34
2022-10-18T18:34:09.653Z,101620.31
2022-10-18T18:36:38.481Z,101620.31
2022-10-18T18:39:06.278Z,101553.06
2022-10-18T18:41:33.797Z,101623.13
2022-10-18T18:44:02.257Z,101624.03
2022-10-18T18:46:32.842Z,101616.09
2022-10-18T18:49:00.285Z,101624.19
2022-10-18T18:51:27.722Z,101621.59
2022-10-18T18:53:56.490Z,101625.22
2022-10-18T18:56:24.943Z,101622.63
2022-10-18T18:58:52.553Z,101600.19
2022-10-18T19:01:20.925Z,101565.00
2022-10-18T19:03:49.144Z,101629.25
2022-10-18T19:06:17.830Z,101634.66
2022-10-18T19:08:45.962Z,101592.81
2022-10-18T19:11:15.953Z,101637.34
2022-10-18T19:13:43.442Z,101633.06
2022-10-18T19:16:19.907Z,101605.53
2022-10-18T19:18:51.787Z,101639.28
2022-10-18T19:21:19.294Z,101635.66
2022-10-18T19:23:46.752Z,101639.28
2022-10-18T19:26:22.683Z,101637.75
2022-10-18T19:28:50.194Z,101638.56
2022-10-18T19:31:17.723Z,101632.56
2022-10-18T19:33:55.570Z,101630.66
2022-10-18T19:36:26.388Z,101639.63
2022-10-18T19:38:53.807Z,101641.50
2022-10-18T19:41:23.570Z,101637.09
2022-10-18T19:43:51.058Z,101646.06
2022-10-18T19:46:18.509Z,101645.34
2022-10-18T19:48:46.030Z,101652.47
2022-10-18T19:51:17.297Z,101647.13
2022-10-18T19:53:48.326Z,101650.75
2022-10-18T19:56:18.390Z,101650.84
2022-10-18T19:58:47.054Z,101655.47
2022-10-18T20:01:14.708Z,101657.38
2022-10-18T20:03:42.442Z,101659.16
2022-10-18T20:06:09.910Z,101661.91
2022-10-18T20:08:37.526Z,101664.72
2022-10-18T20:11:06.050Z,101607.63
2022-10-18T20:13:33.532Z,101587.75
2022-10-18T20:16:02.443Z,101663.09
2022-10-18T20:18:29.878Z,101658.75
2022-10-18T20:20:57.359Z,101587.13
2022-10-18T20:23:24.797Z,101663.25
2022-10-18T20:25:59.124Z,101667.72
2022-10-18T20:28:26.692Z,101666.06
2022-10-18T20:31:03.207Z,101663.47
2022-10-18T20:33:30.797Z,101617.78
2022-10-18T20:36:02.674Z,101651.34
2022-10-18T20:38:31.795Z,101652.06
2022-10-18T20:41:03.424Z,101655.78
2022-10-18T20:43:30.852Z,101661.19
2022-10-18T20:45:58.528Z,101581.91
2022-10-18T20:48:27.366Z,101667.44
2022-10-18T20:50:54.921Z,101659.44
2022-10-18T20:53:23.028Z,101660.47
2022-10-18T20:55:50.577Z,101617.50
2022-10-18T20:58:18.006Z,101666.81
2022-10-18T21:00:45.498Z,101663.34
2022-10-18T21:05:46.619Z,101669.56
2022-10-18T21:08:15.674Z,101665.16
2022-10-18T21:10:43.118Z,101665.28
2022-10-18T21:13:10.580Z,101664.44
2022-10-18T21:15:38.013Z,101653.94
2022-10-18T21:18:05.449Z,101656.59
2022-10-18T21:20:32.930Z,101660.34
2022-10-18T21:23:01.694Z,101663.06
2022-10-18T21:25:29.150Z,101667.56
2022-10-18T21:27:56.606Z,101666.69
2022-10-18T21:30:24.051Z,101667.72
2022-10-18T21:32:52.443Z,101660.75
2022-10-18T21:35:19.894Z,101658.00
2022-10-18T21:37:47.327Z,101652.88
2022-10-18T21:40:16.202Z,101652.88
2022-10-18T21:42:43.644Z,101660.13
2022-10-18T21:45:11.521Z,101673.53
2022-10-18T21:47:38.966Z,101663.63
2022-10-18T21:50:07.026Z,101668.06
2022-10-18T21:52:34.738Z,101668.19
2022-10-18T21:55:02.658Z,101667.31
2022-10-18T21:57:31.488Z,101662.06
2022-10-18T21:59:58.997Z,101672.72
2022-10-18T22:02:26.478Z,101670.22
2022-10-18T22:04:54.114Z,101674.75
2022-10-18T22:07:21.674Z,101676.50
2022-10-18T22:09:49.100Z,101673.97
2022-10-18T22:12:16.519Z,101671.53
2022-10-18T22:14:45.285Z,101668.78
2022-10-18T22:17:12.706Z,101670.66
2022-10-18T22:22:29.296Z,101664.44
2022-10-18T22:24:56.755Z,101649.88
2022-10-18T22:27:24.238Z,101659.97
2022-10-18T22:29:53.369Z,101659.09
2022-10-18T22:32:20.846Z,101659.31
2022-10-18T22:34:48.276Z,101649.69
2022-10-18T22:37:15.784Z,101659.31
2022-10-18T22:39:43.243Z,101651.31
2022-10-18T22:42:10.790Z,101646.13
2022-10-18T22:44:38.238Z,101633.09
2022-10-18T22:47:07.107Z,101647.06
2022-10-18T22:49:34.626Z,101642.84
2022-10-18T22:52:02.120Z,101645.56
2022-10-18T22:54:29.618Z,101645.66
2022-10-18T22:56:57.101Z,101643.94
2022-10-18T22:59:24.676Z,101645.72
2022-10-18T23:01:52.217Z,101644.84
2022-10-18T23:04:21.073Z,101646.66
2022-10-18T23:06:48.582Z,101642.25
2022-10-18T23:09:16.075Z,101640.47
2022-10-18T23:11:43.643Z,101632.47
2022-10-18T23:14:11.343Z,101631.66
2022-10-18T23:16:38.943Z,101620.16
2022-10-18T23:19:06.482Z,101613.50
2022-10-18T23:21:35.350Z,101576.47
2022-10-18T23:24:03.322Z,101632.69
2022-10-18T23:26:30.854Z,101629.13
2022-10-18T23:28:58.360Z,101627.34
2022-10-18T23:31:26.689Z,101624.75
2022-10-18T23:33:55.145Z,101629.28
2022-10-18T23:36:22.882Z,101631.19
2022-10-18T23:38:51.675Z,101633.91
2022-10-18T23:41:19.305Z,101614.81
2022-10-18T23:43:46.833Z,101598.56
2022-10-18T23:46:14.426Z,101605.72
2022-10-18T23:48:41.887Z,101651.56
2022-10-18T23:51:09.462Z,101655.25
2022-10-18T23:53:36.917Z,101649.03
2022-10-18T23:56:06.905Z,101621.38
2022-10-18T23:58:34.749Z,101635.84
